Time;durP1;ratioP1;P1;durP2;ratioP2;P2;SDS_P1;SDS_P2;PMS_P1;PMS_P2;Temp;Humidity;BMP_temperature;BMP_pressure;BME280_temperature;BME280_humidity;BME280_pressure;Samples;Min_cycle;Max_cycle;Signal;HPM_P1;HPM_P2
2023/12/17 00:06:37;;;;;;;;;;;8.50;99.90;;;;;;6722656;88;20054;-77
2023/12/17 00:16:37;;;;;;;;;;;8.50;99.90;;;;;;6726570;88;20087;-79
2023/12/17 00:26:38;;;;;;;;;;;8.50;99.90;;;;;;6723520;88;20057;-77
2023/12/17 00:46:42;;;;;;;;;;;8.40;99.90;;;;;;6756834;88;20097;-80
2023/12/17 00:56:42;;;;;;;;;;;8.30;99.90;;;;;;6754378;88;20070;-80
2023/12/17 01:06:43;;;;;;;;;;;8.60;99.90;;;;;;6750532;88;20049;-79
2023/12/17 01:16:43;;;;;;;;;;;8.40;99.90;;;;;;6747978;88;20042;-80
2023/12/17 01:26:44;;;;;;;;;;;8.30;99.90;;;;;;6746680;88;20103;-80
2023/12/17 01:36:44;;;;;;;;;;;8.30;99.90;;;;;;6747931;88;20058;-80
2023/12/17 01:46:45;;;;;;;;;;;8.30;99.90;;;;;;6735074;88;20565;-80
2023/12/17 01:56:45;;;;;;;;;;;8.40;99.90;;;;;;6749437;88;20127;-79
2023/12/17 02:06:45;;;;;;;;;;;8.50;99.90;;;;;;6734619;88;20077;-80
2023/12/17 02:16:46;;;;;;;;;;;8.40;99.90;;;;;;6729301;88;20271;-81
2023/12/17 02:26:46;;;;;;;;;;;8.20;99.90;;;;;;6733791;88;20059;-81
2023/12/17 02:36:47;;;;;;;;;;;8.20;99.90;;;;;;6733553;88;20084;-81
2023/12/17 02:46:47;;;;;;;;;;;8.10;99.90;;;;;;6747394;88;20075;-81
2023/12/17 02:56:48;;;;;;;;;;;8.10;99.90;;;;;;6760880;88;20057;-81
2023/12/17 03:06:48;;;;;;;;;;;8.00;99.90;;;;;;6747826;88;20070;-81
2023/12/17 03:16:49;;;;;;;;;;;8.10;99.90;;;;;;6754973;88;20044;-82
2023/12/17 03:26:49;;;;;;;;;;;8.10;99.90;;;;;;6736334;88;20123;-81
2023/12/17 03:36:49;;;;;;;;;;;8.10;99.90;;;;;;6731724;88;20101;-80
2023/12/17 03:46:50;;;;;;;;;;;8.10;99.90;;;;;;6735484;88;20045;-80
2023/12/17 03:56:50;;;;;;;;;;;8.00;99.90;;;;;;6753440;88;20058;-79
2023/12/17 04:06:51;;;;;;;;;;;8.00;99.90;;;;;;6752837;88;20038;-78
2023/12/17 04:16:51;;;;;;;;;;;7.90;99.90;;;;;;6748308;88;20749;-80
2023/12/17 04:26:52;;;;;;;;;;;7.80;99.90;;;;;;6753177;88;20041;-80
2023/12/17 04:36:53;;;;;;;;;;;7.90;99.90;;;;;;6768497;88;20059;-80
2023/12/17 04:46:54;;;;;;;;;;;7.80;99.90;;;;;;6764926;88;20049;-79
2023/12/17 04:56:55;;;;;;;;;;;7.70;99.90;;;;;;6752360;88;20024;-79
2023/12/17 05:06:55;;;;;;;;;;;7.60;99.90;;;;;;6762186;88;20073;-81
2023/12/17 05:16:56;;;;;;;;;;;7.60;99.90;;;;;;6761448;88;20573;-80
2023/12/17 05:26:56;;;;;;;;;;;7.60;99.90;;;;;;6760316;88;20080;-82
2023/12/17 05:36:57;;;;;;;;;;;7.60;99.90;;;;;;6760325;88;20053;-81
2023/12/17 05:46:57;;;;;;;;;;;7.50;99.90;;;;;;6760225;88;20065;-79
2023/12/17 05:56:58;;;;;;;;;;;7.50;99.90;;;;;;6756393;88;20308;-79
2023/12/17 06:06:58;;;;;;;;;;;7.50;99.90;;;;;;6761870;88;20078;-80
2023/12/17 06:16:59;;;;;;;;;;;7.50;99.90;;;;;;6761774;88;20955;-81
2023/12/17 06:26:59;;;;;;;;;;;7.40;99.90;;;;;;6757239;88;20045;-83
2023/12/17 06:37:00;;;;;;;;;;;7.40;99.90;;;;;;6745966;88;20043;-82
2023/12/17 06:57:04;;;;;;;;;;;7.40;99.90;;;;;;6743404;88;20102;-79
2023/12/17 07:07:05;;;;;;;;;;;7.30;99.90;;;;;;6745875;88;20130;-78
2023/12/17 07:17:05;;;;;;;;;;;7.30;99.90;;;;;;6746303;88;20100;-79
2023/12/17 07:27:06;;;;;;;;;;;7.30;99.90;;;;;;6747173;88;20062;-78
2023/12/17 07:37:06;;;;;;;;;;;7.30;99.90;;;;;;6745989;88;20083;-80
2023/12/17 07:47:10;;;;;;;;;;;7.40;99.90;;;;;;6740005;88;20130;-80
2023/12/17 07:57:11;;;;;;;;;;;7.30;99.90;;;;;;6739781;88;20070;-81
2023/12/17 08:07:11;;;;;;;;;;;7.40;99.90;;;;;;6744903;88;20051;-80
2023/12/17 08:17:12;;;;;;;;;;;7.40;99.90;;;;;;6748520;88;20153;-80
2023/12/17 08:27:13;;;;;;;;;;;7.40;99.90;;;;;;6746504;88;20121;-80
2023/12/17 08:37:14;;;;;;;;;;;7.30;99.90;;;;;;6747954;88;20074;-79
2023/12/17 08:47:14;;;;;;;;;;;7.30;99.90;;;;;;6740628;88;20096;-79
2023/12/17 08:57:14;;;;;;;;;;;7.30;99.90;;;;;;6739648;88;20607;-80
2023/12/17 09:07:15;;;;;;;;;;;7.10;99.90;;;;;;6746898;88;20559;-82
2023/12/17 09:17:15;;;;;;;;;;;7.20;99.90;;;;;;6742726;88;20084;-83
2023/12/17 09:27:16;;;;;;;;;;;7.10;99.90;;;;;;6734562;88;20082;-81
2023/12/17 09:37:17;;;;;;;;;;;6.90;99.90;;;;;;6732394;88;20179;-82
2023/12/17 09:47:17;;;;;;;;;;;7.10;99.90;;;;;;6750665;88;20086;-79
2023/12/17 09:57:18;;;;;;;;;;;7.20;99.90;;;;;;6762163;88;20054;-80
2023/12/17 10:07:18;;;;;;;;;;;7.30;99.90;;;;;;6748142;88;20145;-79
2023/12/17 10:17:19;;;;;;;;;;;7.20;99.90;;;;;;6741614;88;20062;-80
2023/12/17 10:27:20;;;;;;;;;;;7.10;99.90;;;;;;6746187;88;20059;-80
2023/12/17 10:37:21;;;;;;;;;;;7.30;99.90;;;;;;6734492;88;20070;-78
2023/12/17 10:47:23;;;;;;;;;;;8.00;99.90;;;;;;6740771;88;20087;-78
2023/12/17 10:57:25;;;;;;;;;;;8.50;99.90;;;;;;6734000;88;20523;-79
2023/12/17 11:07:26;;;;;;;;;;;8.60;99.90;;;;;;6735383;88;20509;-78
2023/12/17 11:17:27;;;;;;;;;;;9.00;99.90;;;;;;6737022;88;20046;-79
2023/12/17 11:27:29;;;;;;;;;;;9.50;99.90;;;;;;6745044;88;20084;-79
2023/12/17 11:37:34;;;;;;;;;;;9.70;99.90;;;;;;6744957;88;20074;-80
2023/12/17 11:47:34;;;;;;;;;;;10.30;99.90;;;;;;6741987;88;20090;-78
2023/12/17 11:57:35;;;;;;;;;;;11.20;99.90;;;;;;6738784;88;20177;-78
2023/12/17 12:07:35;;;;;;;;;;;10.70;99.90;;;;;;6743557;88;20090;-79
2023/12/17 12:37:46;;;;;;;;;;;12.00;99.90;;;;;;6737819;88;20260;-79
2023/12/17 12:57:50;;;;;;;;;;;12.30;99.90;;;;;;6732719;88;20106;-77
2023/12/17 13:07:51;;;;;;;;;;;12.00;99.90;;;;;;6727048;88;20081;-79
2023/12/17 13:17:52;;;;;;;;;;;12.00;99.90;;;;;;6722160;88;20647;-78
2023/12/17 13:27:53;;;;;;;;;;;11.80;99.90;;;;;;6718537;88;20098;-79
2023/12/17 13:37:53;;;;;;;;;;;12.20;99.90;;;;;;6726531;88;20059;-79
2023/12/17 13:47:54;;;;;;;;;;;12.20;99.90;;;;;;6722186;88;20067;-78
2023/12/17 13:57:54;;;;;;;;;;;11.70;99.90;;;;;;6730741;88;20492;-78
2023/12/17 14:07:56;;;;;;;;;;;11.30;99.90;;;;;;6721421;88;20059;-77
2023/12/17 14:17:57;;;;;;;;;;;11.20;99.90;;;;;;6725050;88;20163;-80
2023/12/17 14:27:57;;;;;;;;;;;11.90;99.90;;;;;;6726363;88;20670;-80
2023/12/17 14:37:58;;;;;;;;;;;11.90;99.90;;;;;;6724029;88;20082;-80
2023/12/17 14:47:58;;;;;;;;;;;11.50;99.90;;;;;;6724511;88;20126;-80
2023/12/17 14:57:59;;;;;;;;;;;10.60;99.90;;;;;;6739052;88;20039;-80
2023/12/17 15:07:59;;;;;;;;;;;9.90;99.90;;;;;;6728690;88;20069;-78
2023/12/17 15:18:00;;;;;;;;;;;9.40;99.90;;;;;;6736955;88;20525;-78
2023/12/17 15:28:01;;;;;;;;;;;9.00;99.90;;;;;;6718913;88;20087;-78
2023/12/17 15:38:01;;;;;;;;;;;8.60;99.90;;;;;;6725851;88;20091;-80
2023/12/17 15:48:02;;;;;;;;;;;8.40;99.90;;;;;;6717529;88;20130;-79
2023/12/17 15:58:03;;;;;;;;;;;8.20;99.90;;;;;;6725998;88;20187;-80
2023/12/17 16:08:03;;;;;;;;;;;8.10;99.90;;;;;;6732518;88;20058;-80
2023/12/17 16:18:04;;;;;;;;;;;7.90;99.90;;;;;;6727487;88;20076;-80
2023/12/17 16:28:04;;;;;;;;;;;7.80;99.90;;;;;;6725500;88;20139;-80
2023/12/17 16:38:05;;;;;;;;;;;7.60;99.90;;;;;;6730513;88;20079;-80
2023/12/17 16:48:06;;;;;;;;;;;7.60;99.90;;;;;;6736073;88;20059;-81
2023/12/17 16:58:06;;;;;;;;;;;7.50;99.90;;;;;;6739821;88;20136;-81
2023/12/17 17:08:08;;;;;;;;;;;7.40;99.90;;;;;;6719669;88;20058;-80
2023/12/17 17:18:09;;;;;;;;;;;7.20;99.90;;;;;;6734449;88;20182;-80
2023/12/17 17:28:09;;;;;;;;;;;7.10;99.90;;;;;;6734935;88;20097;-78
2023/12/17 17:38:10;;;;;;;;;;;7.00;99.90;;;;;;6724416;88;20125;-78
2023/12/17 17:48:10;;;;;;;;;;;6.80;99.90;;;;;;6718019;88;20056;-78
2023/12/17 17:58:10;;;;;;;;;;;6.70;99.90;;;;;;6722916;88;20071;-78
2023/12/17 18:08:11;;;;;;;;;;;6.60;99.90;;;;;;6726557;88;20090;-78
2023/12/17 18:18:12;;;;;;;;;;;6.50;99.90;;;;;;6728601;88;20491;-78
2023/12/17 18:28:13;;;;;;;;;;;6.50;99.90;;;;;;6741360;88;20100;-79
2023/12/17 18:38:14;;;;;;;;;;;6.50;99.90;;;;;;6731115;88;20136;-80
2023/12/17 18:58:24;;;;;;;;;;;6.50;99.90;;;;;;6755124;88;20082;-83
2023/12/17 19:08:26;;;;;;;;;;;6.40;99.90;;;;;;6752350;88;20172;-81
2023/12/17 19:18:27;;;;;;;;;;;6.20;99.90;;;;;;6746046;88;20053;-81
2023/12/17 19:28:29;;;;;;;;;;;6.10;99.90;;;;;;6745196;88;20061;-80
2023/12/17 19:38:29;;;;;;;;;;;6.10;99.90;;;;;;6746251;88;20891;-80
2023/12/17 19:48:30;;;;;;;;;;;5.90;99.90;;;;;;6744398;88;20533;-79
2023/12/17 19:58:33;;;;;;;;;;;5.90;99.90;;;;;;6726644;88;20076;-79
2023/12/17 20:08:33;;;;;;;;;;;5.80;99.90;;;;;;6731267;88;20062;-81
2023/12/17 20:18:34;;;;;;;;;;;5.80;99.90;;;;;;6730911;88;20085;-82
2023/12/17 20:28:34;;;;;;;;;;;5.80;99.90;;;;;;6739709;88;20041;-82
2023/12/17 20:38:35;;;;;;;;;;;6.00;99.90;;;;;;6741756;88;20079;-82
2023/12/17 20:48:36;;;;;;;;;;;5.90;99.90;;;;;;6738752;88;20074;-80
2023/12/17 20:58:36;;;;;;;;;;;6.40;99.90;;;;;;6741358;88;20074;-80
2023/12/17 21:08:37;;;;;;;;;;;6.00;99.90;;;;;;6746724;88;20056;-79
2023/12/17 21:18:37;;;;;;;;;;;5.80;99.90;;;;;;6741539;88;20059;-79
2023/12/17 21:28:38;;;;;;;;;;;5.70;99.90;;;;;;6744857;88;20084;-81
2023/12/17 21:58:45;;;;;;;;;;;5.40;99.90;;;;;;6762007;88;20668;-80
2023/12/17 22:08:45;;;;;;;;;;;5.40;99.90;;;;;;6758666;88;20185;-81
2023/12/17 22:18:46;;;;;;;;;;;5.30;99.90;;;;;;6759489;88;20120;-81
2023/12/17 22:28:46;;;;;;;;;;;5.30;99.90;;;;;;6758925;88;20071;-81
2023/12/17 22:38:47;;;;;;;;;;;5.30;99.90;;;;;;6753968;88;20064;-80
2023/12/17 22:48:48;;;;;;;;;;;5.30;99.90;;;;;;6758288;88;20079;-81
2023/12/17 22:58:50;;;;;;;;;;;5.20;99.90;;;;;;6758372;88;20050;-81
2023/12/17 23:08:51;;;;;;;;;;;5.10;99.90;;;;;;6748831;88;20046;-80
2023/12/17 23:18:51;;;;;;;;;;;5.10;99.90;;;;;;6752856;88;20047;-79
2023/12/17 23:28:54;;;;;;;;;;;5.10;99.90;;;;;;6759643;88;20760;-78
2023/12/17 23:38:55;;;;;;;;;;;5.10;99.90;;;;;;6762228;88;20073;-79
2023/12/17 23:48:56;;;;;;;;;;;5.00;99.90;;;;;;6756806;88;20085;-78
2023/12/17 23:58:56;;;;;;;;;;;5.10;99.90;;;;;;6761007;88;20791;-78
